createdAt,value
2023-01-17T00:08:47.753Z,82.06
2023-01-17T00:19:12.223Z,82.50
2023-01-17T00:29:21.809Z,82.83
2023-01-17T00:39:28.537Z,84.95
2023-01-17T00:50:21.745Z,85.27
2023-01-17T01:01:08.066Z,84.71
2023-01-17T01:11:51.181Z,84.75
2023-01-17T01:23:15.568Z,84.41
2023-01-17T01:34:07.510Z,84.93
2023-01-17T01:44:51.402Z,85.51
2023-01-17T01:55:06.799Z,84.80
2023-01-17T02:05:43.885Z,85.37
2023-01-17T02:16:23.156Z,85.54
2023-01-17T02:26:52.684Z,86.75
2023-01-17T02:37:09.279Z,85.76
2023-01-17T02:47:46.994Z,84.38
2023-01-17T02:58:42.139Z,82.99
2023-01-17T03:08:57.166Z,81.78
2023-01-17T03:19:16.416Z,80.70
2023-01-17T03:29:40.814Z,79.96
2023-01-17T03:40:10.115Z,79.41
2023-01-17T03:50:14.364Z,78.78
2023-01-17T04:00:40.222Z,79.26
2023-01-17T04:11:07.317Z,79.13
2023-01-17T04:21:24.383Z,79.17
2023-01-17T04:31:31.226Z,79.31
2023-01-17T04:41:45.624Z,79.56
2023-01-17T04:51:52.783Z,80.09
2023-01-17T05:02:20.161Z,81.16
2023-01-17T05:12:41.268Z,81.42
2023-01-17T05:22:47.669Z,82.35
2023-01-17T05:33:02.819Z,82.36
2023-01-17T05:43:12.821Z,81.79
2023-01-17T05:53:20.599Z,81.78
2023-01-17T06:03:27.201Z,81.64
2023-01-17T06:13:38.952Z,81.71
2023-01-17T06:23:58.476Z,81.53
2023-01-17T06:34:05.933Z,81.49
2023-01-17T06:44:13.140Z,81.33
2023-01-17T06:54:20.470Z,81.12
2023-01-17T07:04:30.378Z,81.58
2023-01-17T07:14:45.017Z,81.90
2023-01-17T07:25:14.752Z,81.76
2023-01-17T07:35:42.285Z,81.74
2023-01-17T07:46:01.979Z,81.74
2023-01-17T07:56:29.467Z,81.84
2023-01-17T08:07:25.960Z,81.29
2023-01-17T08:18:01.367Z,81.07
2023-01-17T08:28:14.188Z,81.20
2023-01-17T08:39:08.726Z,81.74
2023-01-17T08:49:53.465Z,81.82
2023-01-17T09:00:28.847Z,81.67
2023-01-17T09:11:09.818Z,81.93
2023-01-17T09:21:37.861Z,82.11
2023-01-17T09:31:58.231Z,82.81
2023-01-17T09:42:05.128Z,81.33
2023-01-17T09:52:42.286Z,80.97
2023-01-17T10:03:46.637Z,81.56
2023-01-17T10:14:21.986Z,81.43
2023-01-17T10:25:09.149Z,79.69
2023-01-17T10:35:48.437Z,78.96
2023-01-17T10:46:41.751Z,78.54
2023-01-17T10:57:19.359Z,78.79
2023-01-17T11:08:10.090Z,78.81
2023-01-17T11:19:15.257Z,78.45
2023-01-17T11:30:37.075Z,76.09
2023-01-17T11:41:20.998Z,76.04
2023-01-17T11:51:56.831Z,76.35
2023-01-17T12:03:16.386Z,76.75
2023-01-17T12:14:01.867Z,76.50
2023-01-17T12:24:17.169Z,76.88
2023-01-17T12:34:47.554Z,76.57
2023-01-17T12:45:20.550Z,77.02
2023-01-17T12:55:41.450Z,76.86
2023-01-17T13:05:53.791Z,76.11
2023-01-17T13:16:03.700Z,75.81
2023-01-17T13:26:21.065Z,75.50
2023-01-17T13:36:42.730Z,75.17
2023-01-17T13:47:26.622Z,75.16
2023-01-17T13:57:42.378Z,75.67
2023-01-17T14:08:13.466Z,75.93
2023-01-17T14:18:37.296Z,75.66
2023-01-17T14:28:56.261Z,75.62
2023-01-17T14:39:00.582Z,75.16
2023-01-17T14:49:25.721Z,75.31
2023-01-17T14:59:29.785Z,75.84
2023-01-17T15:09:37.436Z,76.34
2023-01-17T15:19:44.382Z,76.53
2023-01-17T15:29:53.167Z,76.90
2023-01-17T15:40:18.322Z,77.10
2023-01-17T15:50:32.340Z,77.80
2023-01-17T16:00:45.521Z,78.63
2023-01-17T16:10:55.401Z,79.11
2023-01-17T16:21:02.408Z,79.32
2023-01-17T16:31:08.552Z,79.83
2023-01-17T16:41:13.492Z,79.97
2023-01-17T16:51:17.649Z,80.15
2023-01-17T17:01:23.348Z,80.61
2023-01-17T17:11:27.745Z,80.43
2023-01-17T17:21:36.326Z,80.12
2023-01-17T17:31:46.603Z,80.59
2023-01-17T17:41:53.987Z,80.88
2023-01-17T17:52:21.582Z,81.11
2023-01-17T18:02:27.344Z,81.20
2023-01-17T18:12:32.382Z,80.91
2023-01-17T18:22:37.653Z,81.23
2023-01-17T18:32:52.326Z,81.52
2023-01-17T18:42:59.356Z,81.73
2023-01-17T18:53:07.145Z,81.51
2023-01-17T19:03:19.866Z,81.70
2023-01-17T19:13:28.589Z,81.97
2023-01-17T19:23:37.764Z,82.13
2023-01-17T19:33:45.477Z,82.07
2023-01-17T19:44:05.823Z,81.89
2023-01-17T19:54:11.562Z,82.01
2023-01-17T20:04:19.557Z,82.20
2023-01-17T20:14:28.015Z,82.84
2023-01-17T20:24:34.007Z,82.54
2023-01-17T20:34:39.031Z,82.57
2023-01-17T20:44:44.208Z,81.91
2023-01-17T20:54:52.644Z,82.25
2023-01-17T21:04:59.088Z,81.80
2023-01-17T21:15:03.128Z,81.82
2023-01-17T21:25:08.076Z,81.60
2023-01-17T21:35:12.527Z,81.80
2023-01-17T21:45:16.557Z,81.95
2023-01-17T21:55:39.436Z,81.70
2023-01-17T22:05:43.437Z,81.60
2023-01-17T22:15:58.992Z,81.32
2023-01-17T22:26:07.655Z,82.32
2023-01-17T22:36:16.438Z,82.45
2023-01-17T22:46:26.293Z,81.97
2023-01-17T22:56:32.833Z,81.95
2023-01-17T23:06:39.487Z,82.16
2023-01-17T23:17:08.621Z,82.42
2023-01-17T23:27:50.543Z,82.83
2023-01-17T23:38:13.409Z,83.70
2023-01-17T23:48:17.521Z,84.68
2023-01-17T23:58:40.612Z,84.81
